createdAt,value
2018-07-14T07:53:46.457Z,99553.31
2018-07-14T07:56:34.802Z,99553.36
2018-07-14T07:59:24.372Z,99542.13
2018-07-14T08:02:13.691Z,99540.84
2018-07-14T08:05:01.858Z,99535.27
2018-07-14T08:07:50.969Z,99522.05
2018-07-14T08:10:38.087Z,99521.36
2018-07-14T08:13:27.275Z,99523.75
2018-07-14T08:16:15.917Z,99510.53
2018-07-14T08:19:03.958Z,99519.13
2018-07-14T08:21:53.209Z,99517.44
2018-07-14T08:24:42.777Z,99510.61
2018-07-14T08:27:29.289Z,99516.66
2018-07-14T08:30:15.443Z,99509.80
2018-07-14T08:33:01.591Z,99504.56
2018-07-14T08:35:47.475Z,99501.57
2018-07-14T08:38:33.076Z,99504.65
2018-07-14T08:41:17.893Z,99508.38
2018-07-14T08:44:04.055Z,99506.34
2018-07-14T08:46:50.316Z,99497.95
2018-07-14T08:49:34.956Z,99507.57
2018-07-14T08:52:19.709Z,99508.50
2018-07-14T08:55:05.770Z,99510.61
2018-07-14T08:57:51.764Z,99501.97
2018-07-14T09:00:37.676Z,99491.17
2018-07-14T09:03:23.260Z,99510.73
2018-07-14T09:06:07.983Z,99467.64
2018-07-14T09:08:53.310Z,99490.48
2018-07-14T09:11:38.846Z,99482.02
2018-07-14T09:14:25.680Z,99476.09
2018-07-14T09:17:12.144Z,99490.48
2018-07-14T09:19:57.333Z,99489.34
2018-07-14T09:22:43.700Z,99466.39
2018-07-14T09:25:30.628Z,99458.98
2018-07-14T09:28:16.252Z,99449.92
2018-07-14T09:31:02.947Z,99449.92
2018-07-14T09:33:50.644Z,99448.09
2018-07-14T09:39:45.134Z,99442.38
2018-07-14T09:42:32.780Z,99446.17
2018-07-14T09:48:28.877Z,99448.48
2018-07-14T09:54:20.141Z,99436.69
2018-07-14T09:57:08.103Z,99423.74
2018-07-14T09:59:55.832Z,99426.53
2018-07-14T10:02:43.981Z,99416.44
2018-07-14T10:05:31.038Z,99412.58
2018-07-14T10:08:18.835Z,99415.11
2018-07-14T10:11:06.642Z,99416.89
2018-07-14T10:13:54.624Z,99421.66
2018-07-14T10:16:42.256Z,99412.92
2018-07-14T10:19:29.110Z,99417.95
2018-07-14T10:22:17.392Z,99442.24
2018-07-14T10:25:04.435Z,99446.16
2018-07-14T10:27:52.387Z,99428.83
2018-07-14T10:30:40.090Z,99423.98
2018-07-14T10:33:27.592Z,99424.55
2018-07-14T10:36:15.404Z,99424.39
2018-07-14T10:39:02.659Z,99422.07
2018-07-14T10:41:49.870Z,99426.22
2018-07-14T10:44:37.734Z,99414.34
2018-07-14T10:47:26.506Z,99415.68
2018-07-14T10:50:13.912Z,99411.91
2018-07-14T10:53:01.438Z,99408.63
2018-07-14T10:55:48.856Z,99405.44
2018-07-14T10:58:35.960Z,99417.66
2018-07-14T11:01:23.282Z,99413.93
2018-07-14T11:04:11.054Z,99415.88
2018-07-14T11:06:59.266Z,99419.89
2018-07-14T11:09:46.710Z,99417.95
2018-07-14T11:12:34.322Z,99420.98
2018-07-14T11:15:23.269Z,99419.41
2018-07-14T11:18:10.944Z,99406.91
2018-07-14T11:20:58.640Z,99397.78
2018-07-14T11:23:47.573Z,99398.52
2018-07-14T11:26:36.886Z,99395.52
2018-07-14T11:29:24.331Z,99407.89
2018-07-14T11:32:11.965Z,99409.91
2018-07-14T11:35:00.047Z,99409.22
2018-07-14T11:37:48.927Z,99415.27
2018-07-14T11:40:37.823Z,99426.54
2018-07-14T11:43:26.136Z,99438.95
2018-07-14T11:46:19.937Z,99435.17
2018-07-14T11:49:08.459Z,99433.76
2018-07-14T11:51:56.779Z,99428.32
2018-07-14T11:54:44.872Z,99427.95
2018-07-14T11:57:31.923Z,99422.20
2018-07-14T12:00:18.619Z,99420.09
2018-07-14T12:03:05.935Z,99416.03
2018-07-14T12:05:52.384Z,99420.05
2018-07-14T12:08:41.678Z,99416.03
2018-07-14T12:11:29.234Z,99414.25
2018-07-14T12:14:15.867Z,99415.39
2018-07-14T12:17:02.355Z,99420.17
2018-07-14T12:19:48.654Z,99420.45
2018-07-14T12:22:35.357Z,99424.75
2018-07-14T12:25:22.186Z,99425.33
2018-07-14T12:28:09.847Z,99426.66
2018-07-14T12:30:56.423Z,99437.85
2018-07-14T12:33:42.867Z,99430.88
2018-07-14T12:36:32.094Z,99428.24
2018-07-14T12:39:20.478Z,99432.73
2018-07-14T12:42:09.137Z,99436.11
2018-07-14T12:44:57.662Z,99439.84
2018-07-14T12:47:45.657Z,99449.20
2018-07-14T12:50:33.971Z,99437.69
2018-07-14T12:53:22.367Z,99440.61
2018-07-14T12:56:10.319Z,99450.98
2018-07-14T12:58:58.920Z,99450.95
2018-07-14T13:01:47.695Z,99461.13
2018-07-14T13:04:35.628Z,99465.95
2018-07-14T13:07:25.200Z,99468.63
2018-07-14T13:10:13.865Z,99476.13
2018-07-14T13:13:01.642Z,99486.09
2018-07-14T13:15:50.461Z,99496.04
2018-07-14T13:18:38.548Z,99503.59
